Plank, Pennsylvania
Current Conditions -  °F | °C
As of 5:55 AM on Friday 28 Nov 2014 (Local Time) from KN38 Reporting Station
Overcast Overcast  
Wind Chill: 10°   Ceiling: 5000
Heat Index: 21°   Visibility: 10mi
Dew Point: 16°   Wind: 10mph
Humidity: 80%   Direction: 340°NNW
Pressure: 30.13"   Gusts: 16mph
Location:  41.533°N, 77.3132°W
Report Text: KN38 281055Z AUTO 34009G14KT 10SM SCT018 SCT023 OVC050 M06/M09 A3013 RMK AO2
Loading
Personal Weather Stations






























Interactive Weather Map New forecast layout! Learn more

10-Day Weather Forecast

Advertisements
Track Severe Weather on mobile